Detall de PIREP

Printer-friendly versionPDF version

[2013/09/14 04:41:00]
Flight IATA:CT2110
Pilot Number:041
Company ICAO:CAT
Aircraft Type:A343/E
PAX:199
Departing Airport: LEVC
Destination Airport: LEST
Alternate Airport:LEMD
Online: VATSIM
Route:CENTA A33 PRADO UN733 FORNO
Flight Level:FL330
No Slew and time accel
No pause
Crash detect
Detect pilot in Cockpit between each 30 and 45 minutes
04:41 Zero fuel Weight: 392107 Lbs, Fuel Weight: 31086 Lbs
04:41 VATSIM:LEVC 140400Z 32004KT CAVOK 20/18 Q1020 NOSIG
04:41 VATSIM:LEST 140400Z 36005KT 310V100 7000 BKN004 15/15 Q1023 TEMPO 3000 BR
04:42 VOICE CATALONIAN
04:48 Parking Brakes off
04:54 Take-off
04:54 Take off Weight: 421375 Lbs
04:54 Wind: 323º @ 003 Knots Heading: 295º
04:54 POS N39º 29´ 37´´ W000º 29´ 36´´
04:54 Gear Up: 212 Knots
04:54 Flaps:3 at 212 Knots
04:54 Flaps:1 at 221 Knots
04:54 Flaps:2 at 209 Knots
04:54 Flaps:1 at 210 Knots
04:54 Flaps:3 at 217 Knots
04:54 Flaps:1 at 220 Knots
04:54 Flaps:3 at 222 Knots
04:54 Flaps:1 at 224 Knots
04:54 Flaps:0 at 232 Knots
05:07 TOC
05:07 Fuel Weight: 23107 Lb
05:09 Wind:234º@028 Knots Heading: 295º Ground Speed: 467 Knots Altitude 33257 ft
05:24 Wind:009º@009 Knots Heading: 297º Ground Speed: 474 Knots Altitude 33267 ft
05:34 TOD
05:34 Fuel Weight: 16400 Lb
05:39 Wind:350º@003 Knots Heading: 304º Ground Speed: 360 Knots Altitude 22188 ft
05:54 Wind:044º@003 Knots Heading: 303º Ground Speed: 262 Knots Altitude 4005 ft
06:03 Flaps:1 at 227 Knots
06:03 Flaps:2 at 211 Knots
06:03 Flaps:3 at 210 Knots
06:04 Flaps:4 at 177 Knots
06:04 Gear Down: 167 Knots
06:04 Flaps:5 at 153 Knots
06:06 TouchDown:Rate -175 ft/min Speed: 131 Knots
06:07 VATSIM:LEST 140530Z 01005KT 330V050 5000 BR BKN003 15/15 Q1023 TEMPO 0800 BCFG
06:07 Land
06:07 Wind:046º@002 Knots
06:07 Heading: 346º
06:07 Flight Duration: 01:13
06:07 Landing Weight: 404870 Lbs
06:07 POS N42º 53´ 42´´ W008º 24´ 52´´
06:08 Parking brakes on
06:08 Block to Block Duration: 01:20
06:08 Final Fuel: 12429 Lbls
06:08 Spent Fuel: 18657 Lbls
06:08 Flight Length: 447 NM
06:08 TOD Land Length: 152 NM

Exportar CSV

Powered by Drupal - Modified by Danger4k